Gales Creek, OR (97117)

4:07 AM PDT on September 22, 2014 (GMT -0700)
Near Hwy 6 - 8 Junction | Change Station
CLOSE
Current Station
Personal Weather Station
Location: Gales Creek, OR
Elevation: 338 ft
Nearby Weather Stations

Elev 338 ft 45.61 °N, 123.23 °W | Updated 2 seconds ago

Overcast
Overcast
58.3 °F
Feels Like 58.3 °F
N
0.0
Wind Variable Wind from WSW
Gusts 0.0 mph

Today
High -- | Low -- °F
--% Chance of Precip.
Yesterday
High -- | Low -- °F
Precip. -- in
7:00 AM 7:10 PM
Waning Crescent, 3% visible
Pressure 29.98 in
Visibility 10.0 miles
Clouds Overcast 2400 ft
Dew Point 54 °F
Humidity 87%
Rainfall 0.00 in
Snow Depth 0 in , 1 in , 0 in
UV 0 out of 12
Pollen 2.70 out of 12
Air Quality Not available.
Flu Activity Not available.
METAR KHIO 221053Z AUTO 20003KT 10SM OVC024 16/13 A2999 RMK AO2 SLP152 T01560128 TSNO

More Conditions Fewer Conditions

Pressure 29.98 in
Visibility 10.0 miles
Clouds Overcast 2400 ft
Dew Point 54 °F
Humidity 87%
Rainfall 0.00 in
Snow Depth 0 in , 1 in , 0 in
UV 0 out of 12
Pollen 2.70 out of 12
Air Quality Not available.
Flu Activity Not available.
METAR KHIO 221053Z AUTO 20003KT 10SM OVC024 16/13 A2999 RMK AO2 SLP152 T01560128 TSNO

More Conditions Fewer Conditions

10-Day Weather Forecast

Almanac

Astronomy

Sep. 22, 2014 Rise Set
Actual Time 7:00 AM PDT 7:10 PM PDT
Civil Twilight 6:30 AM PDT 7:39 PM PDT
Nautical Twilight 5:55 AM PDT 8:14 PM PDT
Astronomical Twilight 5:19 AM PDT 8:50 PM PDT
Moon 5:31 AM PDT 6:22 PM PDT
Length of Visible Light 13h 09m
Length of Day
12h 10m
Tomorrow will be 3m 11s shorter.
Waning Crescent, 3% of the Moon is Illuminated
Today
Waning Crescent
Sep 24
New
Oct 1
First Quarter
Oct 8
Full
Oct 15
Last Quarter

Today's Extremes

State Highs State Lows

Community

WunderPhotos

Upload Photos

1,755,409 photos uploaded!

Nearby

Snow Depth

Station Depth Elevation
Blazed Alder 0 in 3650 ft
Blue Mountain Spring 0 in 5900 ft
Bigelow Camp 1 in 5120 ft
Irish Taylor 0 in 5500 ft
Holland Meadows 0 in 4900 ft

Earthquake Activity

City Distance Mag. Time & Date
No recent earthquake activity has been reported nearby.
Minimum magnitude displayed is 2.5.

Coastal Water Temperatures

Place Temperature
No Stations Reporting

Nearby Weather Stations